GTI243 KDFW-KLGA
Flight info
| Callsign | GTI243 |
|---|---|
| Flight time | N/A |
| Altitude | 39000 |
| Route | FORCK3 FORCK ELD IZAAC Q30 VLKNN THRSR/N0478F410 TWOUP Q22 BURGG Q60 HURTS PROUD2 |
| Aircraft | B748/H-SDE3FGHIM1M2RWXY/LB1 |
Departure
| Time | 2026-05-01 09:35 |
|---|---|
| Airport | Dallas Fort Worth International Airport (KDFW) |
Arrival
| Time | N/A |
|---|---|
| Airport | LaGuardia Airport (KLGA) |
| Time | Latitude | Longitude | Altitude | Speed | Heading |
|---|---|---|---|---|---|
| 2026-05-01 09:12 | 32.89829 | -97.04589 | 608 ft | 0 kts | 86° |
| 2026-05-01 09:23 | 32.89829 | -97.04593 | 608 ft | 2 kts | 86° |
| 2026-05-01 09:24 | 32.89830 | -97.04631 | 617 ft | 2 kts | 103° |
| 2026-05-01 09:24 | 32.89834 | -97.04650 | 624 ft | 2 kts | 127° |
| 2026-05-01 09:24 | 32.89860 | -97.04669 | 623 ft | 1 kts | 179° |
| 2026-05-01 09:25 | 32.89864 | -97.04669 | 624 ft | 0 kts | 179° |
| 2026-05-01 09:27 | 32.89803 | -97.04669 | 618 ft | 15 kts | 180° |
| 2026-05-01 09:27 | 32.89658 | -97.04668 | 617 ft | 26 kts | 180° |
| 2026-05-01 09:27 | 32.89443 | -97.04668 | 616 ft | 34 kts | 179° |
| 2026-05-01 09:28 | 32.89220 | -97.04667 | 616 ft | 30 kts | 177° |
| 2026-05-01 09:28 | 32.89018 | -97.04659 | 620 ft | 22 kts | 178° |
| 2026-05-01 09:28 | 32.88936 | -97.04661 | 619 ft | 3 kts | 205° |
| 2026-05-01 09:28 | 32.88916 | -97.04684 | 624 ft | 6 kts | 231° |
| 2026-05-01 09:29 | 32.88889 | -97.04745 | 616 ft | 7 kts | 221° |
| 2026-05-01 09:29 | 32.88807 | -97.04768 | 615 ft | 18 kts | 183° |
| 2026-05-01 09:30 | 32.88517 | -97.04785 | 616 ft | 17 kts | 196° |
| 2026-05-01 09:30 | 32.88396 | -97.04806 | 616 ft | 20 kts | 180° |
| 2026-05-01 09:30 | 32.88052 | -97.04805 | 616 ft | 27 kts | 181° |
| 2026-05-01 09:31 | 32.87940 | -97.04810 | 616 ft | 5 kts | 195° |
| 2026-05-01 09:31 | 32.87922 | -97.04827 | 622 ft | 3 kts | 230° |
| 2026-05-01 09:31 | 32.87908 | -97.04915 | 608 ft | 10 kts | 269° |
| 2026-05-01 09:32 | 32.87908 | -97.04955 | 608 ft | 0 kts | 270° |
| 2026-05-01 09:33 | 32.87908 | -97.05016 | 617 ft | 11 kts | 270° |
| 2026-05-01 09:34 | 32.87937 | -97.05081 | 613 ft | 8 kts | 326° |
| 2026-05-01 09:34 | 32.88053 | -97.05097 | 616 ft | 54 kts | 359° |
| 2026-05-01 09:34 | 32.90180 | -97.05064 | 1017 ft | 228 kts | 1° |
| 2026-05-01 09:35 | 32.91904 | -97.05056 | 2078 ft | 261 kts | 2° |
| 2026-05-01 09:35 | 32.95447 | -97.05106 | 5458 ft | 257 kts | 2° |
| 2026-05-01 09:35 | 32.97286 | -97.04437 | 5730 ft | 311 kts | 31° |
| 2026-05-01 09:36 | 32.99017 | -97.02446 | 5500 ft | 383 kts | 53° |
| 2026-05-01 09:36 | 33.00266 | -96.99529 | 6241 ft | 392 kts | 69° |
| 2026-05-01 09:36 | 33.00984 | -96.96518 | 7202 ft | 376 kts | 72° |
| 2026-05-01 09:36 | 33.01665 | -96.93639 | 7971 ft | 344 kts | 73° |
| 2026-05-01 09:37 | 33.02250 | -96.91046 | 8695 ft | 304 kts | 73° |
| 2026-05-01 09:37 | 33.02540 | -96.86751 | 9912 ft | 227 kts | 93° |
| 2026-05-01 09:37 | 33.02433 | -96.84793 | 9703 ft | 259 kts | 97° |
| 2026-05-01 09:38 | 33.01407 | -96.80120 | 9658 ft | 319 kts | 114° |
| 2026-05-01 09:38 | 33.00396 | -96.77649 | 9801 ft | 341 kts | 118° |
| 2026-05-01 09:38 | 32.99113 | -96.75226 | 10270 ft | 349 kts | 126° |
| 2026-05-01 09:39 | 32.96608 | -96.70436 | 11998 ft | 336 kts | 117° |
| 2026-05-01 09:39 | 32.95698 | -96.67912 | 12876 ft | 330 kts | 112° |
| 2026-05-01 09:39 | 32.94942 | -96.65333 | 13530 ft | 331 kts | 109° |
| 2026-05-01 09:40 | 32.94271 | -96.62749 | 14344 ft | 320 kts | 109° |
| 2026-05-01 09:40 | 32.92935 | -96.57866 | 16148 ft | 300 kts | 118° |
| 2026-05-01 09:40 | 32.91965 | -96.55740 | 17131 ft | 287 kts | 122° |
| 2026-05-01 09:41 | 32.90946 | -96.53786 | 18058 ft | 276 kts | 122° |
| 2026-05-01 09:41 | 32.89019 | -96.50092 | 19820 ft | 249 kts | 122° |
| 2026-05-01 09:41 | 32.88143 | -96.48433 | 20512 ft | 239 kts | 122° |
| 2026-05-01 09:42 | 32.87269 | -96.46782 | 21059 ft | 234 kts | 122° |
| 2026-05-01 09:42 | 32.86407 | -96.45140 | 21355 ft | 241 kts | 121° |
| 2026-05-01 09:42 | 32.84236 | -96.41054 | 20079 ft | 332 kts | 123° |
| 2026-05-01 09:43 | 32.81456 | -96.36081 | 19791 ft | 385 kts | 124° |
| 2026-05-01 09:43 | 32.79983 | -96.33488 | 19995 ft | 370 kts | 124° |
| 2026-05-01 09:43 | 32.78554 | -96.30987 | 20283 ft | 365 kts | 124° |
| 2026-05-01 09:44 | 32.76622 | -96.25465 | 21170 ft | 373 kts | 91° |
| 2026-05-01 09:44 | 32.76651 | -96.22295 | 21263 ft | 393 kts | 88° |
| 2026-05-01 09:44 | 32.76792 | -96.18997 | 21688 ft | 405 kts | 86° |